EGMCEGSC

Guest
Details From EGMC - Southend
To EGSC - Cambridge
Flight Number -
Tags generated
Created
Modified
Stats Distance 43 nm / 79 km
Max Altitude 1,400 ft / 427 m
Waypoints 3
Social Downloads 0
Likes 0
Share VATSIM

Download

Looking for another format? Having issues loading an existing format? Contact us
Advertisement - Login to hide

Notes

Basic altitude profile: - Ascent Rate: 700ft/min - Ascent Speed: 80kts - Cruise Altitude: 2500ft - Cruise Speed: 120kts - Descent Rate: 500ft/min - Descent Speed: 110kts Options: - Use NATs: yes - Use PACOTS: yes - Use low airways: yes - Use high airways: yes

Route

EGMC SIRGO EGSC

ID Type Via Altitude Latitude Longitude Leg Dist Tot Dist Heading (true) Name
O EGMC APT - 0 ft / 0 m 51.57144˚ 0.69558˚ - 0 nm - Southend
SIRGO FIX - 1,400 ft / 427 m 51.62944˚ 0.64639˚ 3 nm 3 nm 332° / 332° -
O EGSC APT - 0 ft / 0 m 52.20448˚ 0.17645˚ 38 nm 42 nm 333° / 333° Cambridge

Altitude Profile

Advertisement - Login to hide

EGMC

Details ICAO EGMC (SEN)
Name Southend
Region United Kingdom
Timezone Europe/London (UTC+0.0)
Stats Elevation 49 ft / 15 m (AMSL)
Location 51.571443° 0.695583°
Runways 1
Magnetic Variation 0.171° W

METAR

EGMC 131120Z 22011KT 9999 -RA FEW025 BKN042 07/04 Q0997

Decode

TAF

Not found

Departure Runways

ID Width Length Bearing (true) Bearing (mag) Surface Threshold Offset Overrun Length
06 121 ft / 37 m 5,230 ft / 1,594 m 54.10° 54.27° Asphalt 558 ft / 170 m 0 ft / 0 m
24 121 ft / 37 m 5,230 ft / 1,594 m 234.11° 234.28° Asphalt 466 ft / 142 m 0 ft / 0 m

EGSC

Details ICAO EGSC (CBG)
Name Cambridge
Region United Kingdom
Timezone Europe/London (UTC+0.0)
Stats Elevation 47 ft / 14 m (AMSL)
Location 52.204476° 0.176450°
Runways 3
Magnetic Variation 0.418° W

METAR

EGSC 131120Z 21009KT 9999 SHRA SCT035 06/04 Q0996

Decode

TAF

Not found

Destination Runways

ID Width Length Bearing (true) Bearing (mag) Surface Threshold Offset Overrun Length
05 151 ft / 46 m 6,417 ft / 1,956 m 49.79° 50.21° Asphalt 692 ft / 211 m 0 ft / 0 m
05R 115 ft / 35 m 2,947 ft / 898 m 49.84° 50.26° Grass 0 ft / 0 m 0 ft / 0 m
10 115 ft / 35 m 2,290 ft / 698 m 99.91° 100.33° Grass 0 ft / 0 m 0 ft / 0 m
23 151 ft / 46 m 6,417 ft / 1,956 m 229.81° 230.23° Asphalt 469 ft / 143 m 0 ft / 0 m
23L 115 ft / 35 m 2,947 ft / 898 m 229.85° 230.27° Grass 0 ft / 0 m 0 ft / 0 m
28 115 ft / 35 m 2,290 ft / 698 m 279.91° 280.33° Grass 0 ft / 0 m 0 ft / 0 m

Approach Navaids

Runway Type Ident Frequency Range Bearing (true) Bearing (mag) Slope Elevation
23 Localiser ICMG 111.30 MHz 18 nm / 33 km 229.81° 230.22° - 47 ft / 14 m (AMSL)
23 Glidescope ICMG 111.30 MHz 10 nm / 19 km 229.80° 230.22° 3.00° 40 ft / 12 m (AMSL)
23 DME ICMG 111.30 MHz 18 nm / 33 km - - - 60 ft / 18 m (AMSL)

Popular Alternatives